sensor_id;sensor_type;location;lat;lon;timestamp;pressure;altitude;pressure_sealevel;temperature;humidity
6090;BME280;3073;42.660;23.316;2022-12-18T00:02:22;95213.97;;;6.72;100.00
6090;BME280;3073;42.660;23.316;2022-12-18T00:04:49;95221.97;;;6.76;100.00
6090;BME280;3073;42.660;23.316;2022-12-18T00:07:16;95218.25;;;6.71;100.00
6090;BME280;3073;42.660;23.316;2022-12-18T00:09:43;95219.84;;;6.66;100.00
6090;BME280;3073;42.660;23.316;2022-12-18T00:12:09;95218.25;;;6.58;100.00
6090;BME280;3073;42.660;23.316;2022-12-18T00:14:36;95223.13;;;6.53;100.00
6090;BME280;3073;42.660;23.316;2022-12-18T00:17:03;95229.72;;;6.41;100.00
6090;BME280;3073;42.660;23.316;2022-12-18T00:19:32;95233.03;;;6.35;100.00
6090;BME280;3073;42.660;23.316;2022-12-18T00:21:59;95237.53;;;6.33;100.00
6090;BME280;3073;42.660;23.316;2022-12-18T00:24:26;95236.53;;;6.34;100.00
6090;BME280;3073;42.660;23.316;2022-12-18T00:26:53;95242.38;;;6.28;100.00
6090;BME280;3073;42.660;23.316;2022-12-18T00:29:22;95244.34;;;6.39;100.00
6090;BME280;3073;42.660;23.316;2022-12-18T00:31:49;95243.59;;;6.45;100.00
6090;BME280;3073;42.660;23.316;2022-12-18T00:34:16;95250.59;;;6.43;100.00
6090;BME280;3073;42.660;23.316;2022-12-18T00:36:47;95247.06;;;6.38;100.00
6090;BME280;3073;42.660;23.316;2022-12-18T00:39:14;95244.75;;;6.49;100.00
6090;BME280;3073;42.660;23.316;2022-12-18T00:41:41;95257.63;;;6.48;100.00
6090;BME280;3073;42.660;23.316;2022-12-18T00:44:25;95255.63;;;6.30;100.00
6090;BME280;3073;42.660;23.316;2022-12-18T00:46:52;95255.25;;;6.33;100.00
6090;BME280;3073;42.660;23.316;2022-12-18T00:49:19;95261.69;;;6.36;100.00
6090;BME280;3073;42.660;23.316;2022-12-18T00:51:48;95256.06;;;6.40;100.00
6090;BME280;3073;42.660;23.316;2022-12-18T00:54:15;95260.09;;;6.28;100.00
6090;BME280;3073;42.660;23.316;2022-12-18T00:56:43;95262.44;;;6.23;100.00
6090;BME280;3073;42.660;23.316;2022-12-18T00:59:09;95268.06;;;6.18;100.00
6090;BME280;3073;42.660;23.316;2022-12-18T01:01:36;95269.06;;;6.31;100.00
6090;BME280;3073;42.660;23.316;2022-12-18T01:04:03;95266.91;;;6.28;100.00
6090;BME280;3073;42.660;23.316;2022-12-18T01:06:31;95271.97;;;6.21;100.00
6090;BME280;3073;42.660;23.316;2022-12-18T01:08:59;95282.03;;;6.08;100.00
6090;BME280;3073;42.660;23.316;2022-12-18T01:11:26;95284.75;;;6.00;100.00
6090;BME280;3073;42.660;23.316;2022-12-18T01:13:53;95285.47;;;5.94;100.00
6090;BME280;3073;42.660;23.316;2022-12-18T01:16:21;95287.22;;;5.87;100.00
6090;BME280;3073;42.660;23.316;2022-12-18T01:18:51;95290.34;;;5.89;100.00
6090;BME280;3073;42.660;23.316;2022-12-18T01:21:19;95292.03;;;5.82;100.00
6090;BME280;3073;42.660;23.316;2022-12-18T01:23:51;95287.91;;;5.81;100.00
6090;BME280;3073;42.660;23.316;2022-12-18T01:26:20;95281.50;;;5.85;100.00
6090;BME280;3073;42.660;23.316;2022-12-18T01:28:47;95303.00;;;5.89;100.00
6090;BME280;3073;42.660;23.316;2022-12-18T01:31:17;95295.69;;;5.72;100.00
6090;BME280;3073;42.660;23.316;2022-12-18T01:33:45;95290.44;;;5.81;100.00
6090;BME280;3073;42.660;23.316;2022-12-18T01:36:18;95307.84;;;5.56;100.00
6090;BME280;3073;42.660;23.316;2022-12-18T01:38:46;95306.69;;;5.58;100.00
6090;BME280;3073;42.660;23.316;2022-12-18T01:41:14;95309.44;;;5.63;100.00
6090;BME280;3073;42.660;23.316;2022-12-18T01:43:57;95306.69;;;5.58;100.00
6090;BME280;3073;42.660;23.316;2022-12-18T01:46:24;95309.44;;;5.63;100.00
6090;BME280;3073;42.660;23.316;2022-12-18T01:48:53;95315.94;;;5.45;100.00
6090;BME280;3073;42.660;23.316;2022-12-18T01:51:22;95309.38;;;5.50;100.00
6090;BME280;3073;42.660;23.316;2022-12-18T01:53:49;95308.25;;;5.59;100.00
6090;BME280;3073;42.660;23.316;2022-12-18T01:56:20;95314.06;;;5.53;100.00
6090;BME280;3073;42.660;23.316;2022-12-18T01:59:03;95322.09;;;5.36;100.00
6090;BME280;3073;42.660;23.316;2022-12-18T02:01:32;95313.03;;;5.48;100.00
6090;BME280;3073;42.660;23.316;2022-12-18T02:04:20;95304.56;;;5.34;100.00
6090;BME280;3073;42.660;23.316;2022-12-18T02:06:51;95315.13;;;5.44;100.00
6090;BME280;3073;42.660;23.316;2022-12-18T02:09:24;95321.88;;;5.37;100.00
6090;BME280;3073;42.660;23.316;2022-12-18T02:11:59;95318.59;;;5.37;100.00
6090;BME280;3073;42.660;23.316;2022-12-18T02:14:34;95327.63;;;5.46;100.00
6090;BME280;3073;42.660;23.316;2022-12-18T02:17:07;95326.84;;;5.45;100.00
6090;BME280;3073;42.660;23.316;2022-12-18T02:19:44;95325.00;;;5.33;100.00
6090;BME280;3073;42.660;23.316;2022-12-18T02:22:26;95340.69;;;5.49;100.00
6090;BME280;3073;42.660;23.316;2022-12-18T02:25:05;95343.13;;;5.36;100.00
6090;BME280;3073;42.660;23.316;2022-12-18T02:27:36;95340.22;;;5.39;100.00
6090;BME280;3073;42.660;23.316;2022-12-18T02:30:07;95338.16;;;5.49;100.00
6090;BME280;3073;42.660;23.316;2022-12-18T02:32:37;95344.97;;;5.49;100.00
6090;BME280;3073;42.660;23.316;2022-12-18T02:35:18;95339.16;;;5.55;100.00
6090;BME280;3073;42.660;23.316;2022-12-18T02:37:47;95348.19;;;5.36;100.00
6090;BME280;3073;42.660;23.316;2022-12-18T02:40:15;95348.19;;;5.36;100.00
6090;BME280;3073;42.660;23.316;2022-12-18T02:42:45;95352.19;;;5.52;100.00
6090;BME280;3073;42.660;23.316;2022-12-18T02:45:11;95346.97;;;5.32;100.00
6090;BME280;3073;42.660;23.316;2022-12-18T02:47:40;95350.09;;;5.34;100.00
6090;BME280;3073;42.660;23.316;2022-12-18T02:50:15;95352.97;;;5.52;100.00
6090;BME280;3073;42.660;23.316;2022-12-18T02:52:52;95350.19;;;5.47;100.00
6090;BME280;3073;42.660;23.316;2022-12-18T02:55:35;95344.66;;;5.37;100.00
6090;BME280;3073;42.660;23.316;2022-12-18T02:58:14;95346.88;;;5.19;100.00
6090;BME280;3073;42.660;23.316;2022-12-18T03:00:46;95350.13;;;5.13;100.00
6090;BME280;3073;42.660;23.316;2022-12-18T03:03:22;95346.91;;;5.04;100.00
6090;BME280;3073;42.660;23.316;2022-12-18T03:05:53;95356.44;;;5.02;100.00
6090;BME280;3073;42.660;23.316;2022-12-18T03:08:26;95363.56;;;5.13;100.00
6090;BME280;3073;42.660;23.316;2022-12-18T03:10:58;95369.59;;;4.98;100.00
6090;BME280;3073;42.660;23.316;2022-12-18T03:13:31;95363.53;;;4.92;100.00
6090;BME280;3073;42.660;23.316;2022-12-18T03:16:00;95373.06;;;4.90;100.00
6090;BME280;3073;42.660;23.316;2022-12-18T03:18:32;95367.63;;;4.93;100.00
6090;BME280;3073;42.660;23.316;2022-12-18T03:21:04;95365.22;;;4.85;100.00
6090;BME280;3073;42.660;23.316;2022-12-18T03:23:35;95370.09;;;4.87;100.00
6090;BME280;3073;42.660;23.316;2022-12-18T03:26:08;95368.66;;;4.99;100.00
6090;BME280;3073;42.660;23.316;2022-12-18T03:28:40;95369.16;;;5.09;100.00
6090;BME280;3073;42.660;23.316;2022-12-18T03:31:09;95370.34;;;5.13;100.00
6090;BME280;3073;42.660;23.316;2022-12-18T03:33:42;95376.84;;;5.22;100.00
6090;BME280;3073;42.660;23.316;2022-12-18T03:36:11;95378.53;;;5.15;100.00
6090;BME280;3073;42.660;23.316;2022-12-18T03:38:38;95386.06;;;5.08;100.00
6090;BME280;3073;42.660;23.316;2022-12-18T03:41:12;95393.00;;;5.00;100.00
6090;BME280;3073;42.660;23.316;2022-12-18T03:43:49;95399.09;;;4.91;100.00
6090;BME280;3073;42.660;23.316;2022-12-18T03:46:25;95404.28;;;5.04;100.00
6090;BME280;3073;42.660;23.316;2022-12-18T03:49:01;95414.25;;;4.91;100.00
6090;BME280;3073;42.660;23.316;2022-12-18T03:51:37;95415.78;;;4.85;100.00
6090;BME280;3073;42.660;23.316;2022-12-18T03:54:08;95413.06;;;4.87;100.00
6090;BME280;3073;42.660;23.316;2022-12-18T03:56:38;95422.13;;;4.81;100.00
6090;BME280;3073;42.660;23.316;2022-12-18T03:59:10;95422.31;;;4.80;100.00
6090;BME280;3073;42.660;23.316;2022-12-18T04:01:40;95423.72;;;4.67;100.00
6090;BME280;3073;42.660;23.316;2022-12-18T04:04:10;95423.63;;;4.76;100.00
6090;BME280;3073;42.660;23.316;2022-12-18T04:06:38;95421.56;;;4.64;100.00
6090;BME280;3073;42.660;23.316;2022-12-18T04:09:06;95433.84;;;4.67;100.00
6090;BME280;3073;42.660;23.316;2022-12-18T04:11:33;95432.28;;;4.66;100.00
6090;BME280;3073;42.660;23.316;2022-12-18T04:14:00;95439.94;;;4.73;100.00
6090;BME280;3073;42.660;23.316;2022-12-18T04:16:29;95448.31;;;4.74;100.00
6090;BME280;3073;42.660;23.316;2022-12-18T04:18:56;95458.22;;;4.60;100.00
6090;BME280;3073;42.660;23.316;2022-12-18T04:21:23;95457.63;;;4.73;100.00
6090;BME280;3073;42.660;23.316;2022-12-18T04:23:50;95452.84;;;4.63;100.00
6090;BME280;3073;42.660;23.316;2022-12-18T04:26:17;95455.97;;;4.65;100.00
6090;BME280;3073;42.660;23.316;2022-12-18T04:28:44;95459.03;;;4.61;100.00
6090;BME280;3073;42.660;23.316;2022-12-18T04:31:11;95460.94;;;4.59;100.00
6090;BME280;3073;42.660;23.316;2022-12-18T04:33:39;95475.56;;;4.34;100.00
6090;BME280;3073;42.660;23.316;2022-12-18T04:36:06;95472.19;;;4.42;100.00
6090;BME280;3073;42.660;23.316;2022-12-18T04:38:33;95477.84;;;4.44;100.00
6090;BME280;3073;42.660;23.316;2022-12-18T04:41:00;95489.78;;;4.35;100.00
6090;BME280;3073;42.660;23.316;2022-12-18T04:43:27;95493.78;;;4.44;100.00
6090;BME280;3073;42.660;23.316;2022-12-18T04:46:01;95490.66;;;4.42;100.00
6090;BME280;3073;42.660;23.316;2022-12-18T04:48:29;95489.38;;;4.46;100.00
6090;BME280;3073;42.660;23.316;2022-12-18T04:50:57;95493.59;;;4.31;100.00
6090;BME280;3073;42.660;23.316;2022-12-18T04:53:24;95506.91;;;4.25;100.00
6090;BME280;3073;42.660;23.316;2022-12-18T04:56:02;95512.25;;;4.30;100.00
6090;BME280;3073;42.660;23.316;2022-12-18T04:58:29;95518.94;;;4.23;100.00
6090;BME280;3073;42.660;23.316;2022-12-18T05:00:56;95514.69;;;4.38;100.00
6090;BME280;3073;42.660;23.316;2022-12-18T05:03:23;95521.91;;;4.41;100.00
6090;BME280;3073;42.660;23.316;2022-12-18T05:05:50;95518.84;;;4.31;100.00
6090;BME280;3073;42.660;23.316;2022-12-18T05:08:18;95525.38;;;4.26;100.00
6090;BME280;3073;42.660;23.316;2022-12-18T05:10:46;95529.25;;;4.36;100.00
6090;BME280;3073;42.660;23.316;2022-12-18T05:13:13;95524.69;;;4.32;100.00
6090;BME280;3073;42.660;23.316;2022-12-18T05:15:40;95531.13;;;4.34;100.00
6090;BME280;3073;42.660;23.316;2022-12-18T05:18:07;95529.72;;;4.17;100.00
6090;BME280;3073;42.660;23.316;2022-12-18T05:20:34;95533.91;;;4.25;100.00
6090;BME280;3073;42.660;23.316;2022-12-18T05:23:01;95527.53;;;4.14;100.00
6090;BME280;3073;42.660;23.316;2022-12-18T05:25:30;95533.47;;;4.21;100.00
6090;BME280;3073;42.660;23.316;2022-12-18T05:27:57;95538.75;;;4.11;100.00
6090;BME280;3073;42.660;23.316;2022-12-18T05:30:23;95546.66;;;4.31;100.00
6090;BME280;3073;42.660;23.316;2022-12-18T05:32:50;95557.09;;;4.28;100.00
6090;BME280;3073;42.660;23.316;2022-12-18T05:35:17;95561.53;;;4.26;100.00
6090;BME280;3073;42.660;23.316;2022-12-18T05:37:44;95568.13;;;4.27;100.00
6090;BME280;3073;42.660;23.316;2022-12-18T05:40:12;95570.28;;;4.38;100.00
6090;BME280;3073;42.660;23.316;2022-12-18T05:42:40;95570.59;;;4.35;100.00
6090;BME280;3073;42.660;23.316;2022-12-18T05:45:08;95581.22;;;4.31;100.00
6090;BME280;3073;42.660;23.316;2022-12-18T05:47:35;95585.00;;;4.12;100.00
6090;BME280;3073;42.660;23.316;2022-12-18T05:50:02;95583.16;;;4.06;100.00
6090;BME280;3073;42.660;23.316;2022-12-18T05:52:30;95583.09;;;4.14;100.00
6090;BME280;3073;42.660;23.316;2022-12-18T05:54:57;95578.56;;;4.09;100.00
6090;BME280;3073;42.660;23.316;2022-12-18T05:57:24;95588.03;;;4.07;100.00
6090;BME280;3073;42.660;23.316;2022-12-18T05:59:53;95589.56;;;4.17;100.00
6090;BME280;3073;42.660;23.316;2022-12-18T06:02:20;95598.00;;;4.01;100.00
6090;BME280;3073;42.660;23.316;2022-12-18T06:04:47;95598.91;;;4.08;100.00
6090;BME280;3073;42.660;23.316;2022-12-18T06:07:14;95601.28;;;4.09;100.00
6090;BME280;3073;42.660;23.316;2022-12-18T06:09:41;95598.91;;;4.08;100.00
6090;BME280;3073;42.660;23.316;2022-12-18T06:12:07;95606.78;;;4.13;100.00
6090;BME280;3073;42.660;23.316;2022-12-18T06:14:36;95605.19;;;4.12;100.00
6090;BME280;3073;42.660;23.316;2022-12-18T06:17:04;95614.81;;;4.17;100.00
6090;BME280;3073;42.660;23.316;2022-12-18T06:19:31;95618.34;;;4.30;100.00
6090;BME280;3073;42.660;23.316;2022-12-18T06:21:57;95614.13;;;4.23;100.00
6090;BME280;3073;42.660;23.316;2022-12-18T06:24:25;95619.84;;;4.17;100.00
6090;BME280;3073;42.660;23.316;2022-12-18T06:26:51;95617.53;;;4.07;100.00
6090;BME280;3073;42.660;23.316;2022-12-18T06:29:19;95621.25;;;4.19;100.00
6090;BME280;3073;42.660;23.316;2022-12-18T06:31:46;95620.31;;;4.20;100.00
6090;BME280;3073;42.660;23.316;2022-12-18T06:34:14;95617.41;;;4.00;100.00
6090;BME280;3073;42.660;23.316;2022-12-18T06:36:41;95631.06;;;4.14;100.00
6090;BME280;3073;42.660;23.316;2022-12-18T06:39:08;95635.78;;;4.17;100.00
6090;BME280;3073;42.660;23.316;2022-12-18T06:41:34;95636.13;;;4.14;100.00
6090;BME280;3073;42.660;23.316;2022-12-18T06:44:01;95644.09;;;4.26;100.00
6090;BME280;3073;42.660;23.316;2022-12-18T06:46:28;95648.53;;;4.24;100.00
6090;BME280;3073;42.660;23.316;2022-12-18T06:48:55;95643.19;;;4.19;100.00
6090;BME280;3073;42.660;23.316;2022-12-18T06:51:24;95651.56;;;4.19;100.00
6090;BME280;3073;42.660;23.316;2022-12-18T06:53:51;95651.69;;;4.26;100.00
6090;BME280;3073;42.660;23.316;2022-12-18T06:56:18;95651.09;;;4.15;100.00
6090;BME280;3073;42.660;23.316;2022-12-18T06:58:45;95659.28;;;4.18;100.00
6090;BME280;3073;42.660;23.316;2022-12-18T07:01:13;95647.69;;;4.08;100.00
6090;BME280;3073;42.660;23.316;2022-12-18T07:03:42;95655.13;;;4.02;100.00
6090;BME280;3073;42.660;23.316;2022-12-18T07:06:13;95660.63;;;4.05;100.00
6090;BME280;3073;42.660;23.316;2022-12-18T07:08:42;95664.00;;;4.21;100.00
6090;BME280;3073;42.660;23.316;2022-12-18T07:11:09;95666.97;;;4.24;100.00
6090;BME280;3073;42.660;23.316;2022-12-18T07:13:36;95668.19;;;4.13;100.00
6090;BME280;3073;42.660;23.316;2022-12-18T07:16:07;95669.41;;;4.18;100.00
6090;BME280;3073;42.660;23.316;2022-12-18T07:18:34;95672.81;;;4.25;100.00
6090;BME280;3073;42.660;23.316;2022-12-18T07:21:05;95666.34;;;4.30;100.00
6090;BME280;3073;42.660;23.316;2022-12-18T07:23:33;95670.38;;;4.17;100.00
6090;BME280;3073;42.660;23.316;2022-12-18T07:26:05;95673.81;;;4.24;100.00
6090;BME280;3073;42.660;23.316;2022-12-18T07:28:33;95681.44;;;4.07;100.00
6090;BME280;3073;42.660;23.316;2022-12-18T07:31:02;95685.44;;;4.02;100.00
6090;BME280;3073;42.660;23.316;2022-12-18T07:33:29;95690.00;;;4.06;100.00
6090;BME280;3073;42.660;23.316;2022-12-18T07:35:58;95694.28;;;3.98;100.00
6090;BME280;3073;42.660;23.316;2022-12-18T07:38:25;95691.59;;;3.99;100.00
6090;BME280;3073;42.660;23.316;2022-12-18T07:40:53;95693.13;;;4.08;100.00
6090;BME280;3073;42.660;23.316;2022-12-18T07:43:22;95695.16;;;4.13;100.00
6090;BME280;3073;42.660;23.316;2022-12-18T07:45:49;95701.16;;;4.12;100.00
6090;BME280;3073;42.660;23.316;2022-12-18T07:48:16;95699.91;;;4.08;100.00
6090;BME280;3073;42.660;23.316;2022-12-18T07:50:43;95698.78;;;4.10;100.00
6090;BME280;3073;42.660;23.316;2022-12-18T07:53:10;95706.41;;;4.02;100.00
6090;BME280;3073;42.660;23.316;2022-12-18T07:55:37;95713.34;;;4.00;100.00
6090;BME280;3073;42.660;23.316;2022-12-18T07:58:04;95713.22;;;4.02;100.00
6090;BME280;3073;42.660;23.316;2022-12-18T08:00:32;95709.06;;;4.09;100.00
6090;BME280;3073;42.660;23.316;2022-12-18T08:02:59;95718.22;;;4.10;100.00
6090;BME280;3073;42.660;23.316;2022-12-18T08:05:27;95725.94;;;4.08;100.00
6090;BME280;3073;42.660;23.316;2022-12-18T08:07:54;95729.16;;;4.02;100.00
6090;BME280;3073;42.660;23.316;2022-12-18T08:10:21;95733.69;;;4.07;100.00
6090;BME280;3073;42.660;23.316;2022-12-18T08:12:49;95732.78;;;4.00;100.00
6090;BME280;3073;42.660;23.316;2022-12-18T08:15:16;95735.50;;;3.90;100.00
6090;BME280;3073;42.660;23.316;2022-12-18T08:17:44;95743.41;;;3.87;100.00
6090;BME280;3073;42.660;23.316;2022-12-18T08:20:12;95744.38;;;3.86;100.00
6090;BME280;3073;42.660;23.316;2022-12-18T08:22:40;95743.41;;;3.87;100.00
6090;BME280;3073;42.660;23.316;2022-12-18T08:25:07;95755.25;;;3.79;100.00
6090;BME280;3073;42.660;23.316;2022-12-18T08:27:35;95754.59;;;3.85;100.00
6090;BME280;3073;42.660;23.316;2022-12-18T08:30:03;95765.22;;;3.80;100.00
6090;BME280;3073;42.660;23.316;2022-12-18T08:32:30;95772.25;;;3.93;100.00
6090;BME280;3073;42.660;23.316;2022-12-18T08:34:59;95765.03;;;3.74;100.00
6090;BME280;3073;42.660;23.316;2022-12-18T08:37:26;95768.38;;;3.74;100.00
6090;BME280;3073;42.660;23.316;2022-12-18T08:39:53;95766.78;;;3.81;100.00
6090;BME280;3073;42.660;23.316;2022-12-18T08:42:20;95765.63;;;4.00;100.00
6090;BME280;3073;42.660;23.316;2022-12-18T08:45:05;95762.91;;;4.01;100.00
6090;BME280;3073;42.660;23.316;2022-12-18T08:47:33;95763.84;;;4.00;100.00
6090;BME280;3073;42.660;23.316;2022-12-18T08:50:01;95776.31;;;4.10;100.00
6090;BME280;3073;42.660;23.316;2022-12-18T08:52:31;95771.94;;;3.96;100.00
6090;BME280;3073;42.660;23.316;2022-12-18T08:54:59;95772.19;;;4.09;100.00
6090;BME280;3073;42.660;23.316;2022-12-18T08:57:26;95767.44;;;4.14;100.00
6090;BME280;3073;42.660;23.316;2022-12-18T08:59:53;95770.59;;;4.16;100.00
6090;BME280;3073;42.660;23.316;2022-12-18T09:02:20;95775.19;;;4.04;100.00
6090;BME280;3073;42.660;23.316;2022-12-18T09:04:47;95761.97;;;4.02;100.00
6090;BME280;3073;42.660;23.316;2022-12-18T09:07:15;95767.44;;;4.14;100.00
6090;BME280;3073;42.660;23.316;2022-12-18T09:09:43;95767.28;;;4.15;100.00
6090;BME280;3073;42.660;23.316;2022-12-18T09:12:10;95763.22;;;4.06;100.00
6090;BME280;3073;42.660;23.316;2022-12-18T09:14:36;95763.38;;;4.05;100.00
6090;BME280;3073;42.660;23.316;2022-12-18T09:17:03;95764.31;;;4.04;100.00
6090;BME280;3073;42.660;23.316;2022-12-18T09:19:30;95769.47;;;4.19;100.00
6090;BME280;3073;42.660;23.316;2022-12-18T09:21:57;95764.28;;;4.12;100.00
6090;BME280;3073;42.660;23.316;2022-12-18T09:24:25;95764.22;;;4.28;100.00
6090;BME280;3073;42.660;23.316;2022-12-18T09:26:53;95770.53;;;4.24;100.00
6090;BME280;3073;42.660;23.316;2022-12-18T09:29:19;95762.63;;;4.27;100.00
6090;BME280;3073;42.660;23.316;2022-12-18T09:31:47;95768.56;;;4.42;100.00
6090;BME280;3073;42.660;23.316;2022-12-18T09:34:15;95769.72;;;4.32;100.00
6090;BME280;3073;42.660;23.316;2022-12-18T09:36:42;95775.94;;;4.21;100.00
6090;BME280;3073;42.660;23.316;2022-12-18T09:39:09;95773.25;;;4.23;100.00
6090;BME280;3073;42.660;23.316;2022-12-18T09:41:48;95775.59;;;4.24;100.00
6090;BME280;3073;42.660;23.316;2022-12-18T09:44:25;95779.28;;;4.44;100.00
6090;BME280;3073;42.660;23.316;2022-12-18T09:46:59;95778.31;;;4.53;100.00
6090;BME280;3073;42.660;23.316;2022-12-18T09:49:30;95768.25;;;4.68;100.00
6090;BME280;3073;42.660;23.316;2022-12-18T09:52:04;95778.81;;;4.72;100.00
6090;BME280;3073;42.660;23.316;2022-12-18T09:54:35;95772.28;;;4.77;100.00
6090;BME280;3073;42.660;23.316;2022-12-18T09:57:06;95770.97;;;4.66;100.00
6090;BME280;3073;42.660;23.316;2022-12-18T09:59:38;95770.84;;;4.83;100.00
6090;BME280;3073;42.660;23.316;2022-12-18T10:02:14;95765.38;;;4.94;100.00
6090;BME280;3073;42.660;23.316;2022-12-18T10:04:41;95775.06;;;4.90;100.00
6090;BME280;3073;42.660;23.316;2022-12-18T10:07:16;95771.06;;;4.73;100.00
6090;BME280;3073;42.660;23.316;2022-12-18T10:09:51;95773.59;;;4.96;100.00
6090;BME280;3073;42.660;23.316;2022-12-18T10:12:25;95770.66;;;5.07;100.00
6090;BME280;3073;42.660;23.316;2022-12-18T10:15:03;95771.63;;;5.06;100.00
6090;BME280;3073;42.660;23.316;2022-12-18T10:17:37;95777.44;;;4.84;100.00
6090;BME280;3073;42.660;23.316;2022-12-18T10:20:13;95778.31;;;4.76;100.00
6090;BME280;3073;42.660;23.316;2022-12-18T10:22:49;95779.72;;;4.79;100.00
6090;BME280;3073;42.660;23.316;2022-12-18T10:25:24;95789.09;;;4.70;100.00
6090;BME280;3073;42.660;23.316;2022-12-18T10:27:56;95779.59;;;4.49;100.00
6090;BME280;3073;42.660;23.316;2022-12-18T10:30:25;95781.81;;;4.67;100.00
6090;BME280;3073;42.660;23.316;2022-12-18T10:32:52;95779.88;;;4.77;100.00
6090;BME280;3073;42.660;23.316;2022-12-18T10:35:21;95780.84;;;4.76;100.00
6090;BME280;3073;42.660;23.316;2022-12-18T10:38:07;95781.28;;;4.57;100.00
6090;BME280;3073;42.660;23.316;2022-12-18T10:40:52;95779.34;;;4.36;100.00
6090;BME280;3073;42.660;23.316;2022-12-18T10:43:23;95778.34;;;4.45;100.00
6090;BME280;3073;42.660;23.316;2022-12-18T10:46:20;95774.47;;;4.57;100.00
6090;BME280;3073;42.660;23.316;2022-12-18T10:48:51;95771.22;;;4.72;100.00
6090;BME280;3073;42.660;23.316;2022-12-18T10:51:21;95777.31;;;4.54;100.00
6090;BME280;3073;42.660;23.316;2022-12-18T10:53:56;95779.25;;;4.52;100.00
6090;BME280;3073;42.660;23.316;2022-12-18T10:56:24;95779.50;;;4.35;100.00
6090;BME280;3073;42.660;23.316;2022-12-18T10:58:59;95766.44;;;4.54;100.00
6090;BME280;3073;42.660;23.316;2022-12-18T11:01:26;95772.72;;;4.27;100.00
6090;BME280;3073;42.660;23.316;2022-12-18T11:04:01;95773.41;;;4.52;100.00
6090;BME280;3073;42.660;23.316;2022-12-18T11:06:29;95775.38;;;4.34;100.00
6090;BME280;3073;42.660;23.316;2022-12-18T11:09:00;95774.44;;;4.35;100.00
6090;BME280;3073;42.660;23.316;2022-12-18T11:11:28;95774.50;;;4.27;100.00
6090;BME280;3073;42.660;23.316;2022-12-18T11:14:02;95785.63;;;4.40;100.00
6090;BME280;3073;42.660;23.316;2022-12-18T11:16:33;95786.66;;;4.54;100.00
6090;BME280;3073;42.660;23.316;2022-12-18T11:19:19;95792.50;;;4.54;100.00
6090;BME280;3073;42.660;23.316;2022-12-18T11:21:50;95783.59;;;4.36;100.00
6090;BME280;3073;42.660;23.316;2022-12-18T11:24:20;95795.09;;;4.38;100.00
6090;BME280;3073;42.660;23.316;2022-12-18T11:26:50;95787.88;;;4.35;100.00
6090;BME280;3073;42.660;23.316;2022-12-18T11:29:23;95786.06;;;4.44;100.00
6090;BME280;3073;42.660;23.316;2022-12-18T11:31:51;95786.19;;;4.50;100.00
6090;BME280;3073;42.660;23.316;2022-12-18T11:34:24;95784.34;;;4.44;100.00
6090;BME280;3073;42.660;23.316;2022-12-18T11:36:55;95769.44;;;4.27;100.00
6090;BME280;3073;42.660;23.316;2022-12-18T11:39:31;95782.84;;;4.27;100.00
6090;BME280;3073;42.660;23.316;2022-12-18T11:42:04;95783.28;;;4.31;100.00
6090;BME280;3073;42.660;23.316;2022-12-18T11:44:43;95790.69;;;4.40;100.00
6090;BME280;3073;42.660;23.316;2022-12-18T11:47:28;95785.00;;;4.38;100.00
6090;BME280;3073;42.660;23.316;2022-12-18T11:50:00;95790.38;;;4.43;100.00
6090;BME280;3073;42.660;23.316;2022-12-18T11:52:32;95790.97;;;4.45;100.00
6090;BME280;3073;42.660;23.316;2022-12-18T11:55:08;95788.91;;;4.49;100.00
6090;BME280;3073;42.660;23.316;2022-12-18T11:57:44;95785.53;;;4.56;100.00
6090;BME280;3073;42.660;23.316;2022-12-18T12:00:18;95783.97;;;4.78;100.00
6090;BME280;3073;42.660;23.316;2022-12-18T12:05:45;95780.06;;;4.76;100.00
6090;BME280;3073;42.660;23.316;2022-12-18T12:08:19;95778.88;;;4.63;100.00
6090;BME280;3073;42.660;23.316;2022-12-18T12:10:56;95775.19;;;4.43;100.00
6090;BME280;3073;42.660;23.316;2022-12-18T12:13:38;95781.31;;;4.49;100.00
6090;BME280;3073;42.660;23.316;2022-12-18T12:16:16;95770.78;;;4.68;100.00
6090;BME280;3073;42.660;23.316;2022-12-18T12:18:56;95774.88;;;4.69;100.00
6090;BME280;3073;42.660;23.316;2022-12-18T12:21:28;95780.88;;;4.68;100.00
6090;BME280;3073;42.660;23.316;2022-12-18T12:24:07;95778.53;;;4.66;100.00
6090;BME280;3073;42.660;23.316;2022-12-18T12:26:44;95771.72;;;4.67;100.00
6090;BME280;3073;42.660;23.316;2022-12-18T12:29:26;95782.72;;;4.51;100.00
6090;BME280;3073;42.660;23.316;2022-12-18T12:32:08;95785.22;;;4.59;100.00
6090;BME280;3073;42.660;23.316;2022-12-18T12:34:44;95780.28;;;4.66;100.00
6090;BME280;3073;42.660;23.316;2022-12-18T12:37:24;95793.06;;;4.64;100.00
6090;BME280;3073;42.660;23.316;2022-12-18T12:39:55;95790.88;;;4.61;100.00
6090;BME280;3073;42.660;23.316;2022-12-18T12:42:28;95789.63;;;4.57;100.00
6090;BME280;3073;42.660;23.316;2022-12-18T12:45:16;95788.88;;;4.57;100.00
6090;BME280;3073;42.660;23.316;2022-12-18T12:47:46;95782.38;;;4.54;100.00
6090;BME280;3073;42.660;23.316;2022-12-18T12:50:17;95791.00;;;4.37;100.00
6090;BME280;3073;42.660;23.316;2022-12-18T12:52:46;95793.13;;;4.56;100.00
6090;BME280;3073;42.660;23.316;2022-12-18T12:55:17;95792.09;;;4.43;100.00
6090;BME280;3073;42.660;23.316;2022-12-18T12:57:51;95790.31;;;4.51;100.00
6090;BME280;3073;42.660;23.316;2022-12-18T13:00:19;95787.19;;;4.41;100.00
6090;BME280;3073;42.660;23.316;2022-12-18T13:02:52;95789.47;;;4.59;100.00
6090;BME280;3073;42.660;23.316;2022-12-18T13:05:28;95803.84;;;4.58;100.00
6090;BME280;3073;42.660;23.316;2022-12-18T13:08:00;95797.44;;;4.48;100.00
6090;BME280;3073;42.660;23.316;2022-12-18T13:10:38;95805.13;;;4.54;100.00
6090;BME280;3073;42.660;23.316;2022-12-18T13:13:07;95809.22;;;4.63;100.00
6090;BME280;3073;42.660;23.316;2022-12-18T13:15:38;95816.59;;;4.65;100.00
6090;BME280;3073;42.660;23.316;2022-12-18T13:18:18;95813.13;;;4.66;100.00
6090;BME280;3073;42.660;23.316;2022-12-18T13:20:47;95811.63;;;4.57;100.00
6090;BME280;3073;42.660;23.316;2022-12-18T13:23:27;95817.41;;;4.65;100.00
6090;BME280;3073;42.660;23.316;2022-12-18T13:25:56;95816.16;;;4.61;100.00
6090;BME280;3073;42.660;23.316;2022-12-18T13:28:51;95824.41;;;4.55;100.00
6090;BME280;3073;42.660;23.316;2022-12-18T13:34:36;95829.44;;;4.63;100.00